createdAt,value
2023-08-17T00:00:41.795Z,9.20
2023-08-17T00:02:05.077Z,9.77
2023-08-17T00:03:27.117Z,9.80
2023-08-17T00:04:50.438Z,10.50
2023-08-17T00:06:12.464Z,10.35
2023-08-17T00:07:35.614Z,10.10
2023-08-17T00:08:57.603Z,10.45
2023-08-17T00:10:20.926Z,10.93
2023-08-17T00:11:42.892Z,10.55
2023-08-17T00:13:06.074Z,10.80
2023-08-17T00:14:29.666Z,10.48
2023-08-17T00:15:52.944Z,10.30
2023-08-17T00:17:15.059Z,10.23
2023-08-17T00:18:38.087Z,10.40
2023-08-17T00:20:00.063Z,10.90
2023-08-17T00:21:23.302Z,9.90
2023-08-17T00:22:45.504Z,10.05
2023-08-17T00:24:09.002Z,10.13
2023-08-17T00:25:31.919Z,10.27
2023-08-17T00:26:53.927Z,10.68
2023-08-17T00:28:16.948Z,9.95
2023-08-17T00:29:40.630Z,11.05
2023-08-17T00:31:04.129Z,10.77
2023-08-17T00:32:26.187Z,11.45
2023-08-17T00:33:49.109Z,11.13
2023-08-17T00:35:11.132Z,10.23
2023-08-17T00:36:34.198Z,11.25
2023-08-17T00:37:56.544Z,9.73
2023-08-17T00:39:20.958Z,9.77
2023-08-17T00:40:43.297Z,10.05
2023-08-17T00:42:09.009Z,10.57
2023-08-17T00:43:31.130Z,11.02
2023-08-17T00:44:55.611Z,10.27
2023-08-17T00:46:18.471Z,10.27
2023-08-17T00:47:42.136Z,10.38
2023-08-17T00:49:04.959Z,10.55
2023-08-17T00:50:30.008Z,10.70
2023-08-17T00:51:52.792Z,11.25
2023-08-17T00:53:17.623Z,10.88
2023-08-17T00:54:40.119Z,10.68
2023-08-17T00:56:03.572Z,10.35
2023-08-17T00:57:25.800Z,10.52
2023-08-17T00:58:49.147Z,10.68
2023-08-17T01:00:17.146Z,10.85
2023-08-17T01:01:42.073Z,10.30
2023-08-17T01:03:05.664Z,10.35
2023-08-17T01:04:28.582Z,11.52
2023-08-17T01:05:50.511Z,10.45
2023-08-17T01:07:13.584Z,11.23
2023-08-17T01:08:36.379Z,11.45
2023-08-17T01:09:59.738Z,10.95
2023-08-17T01:11:29.012Z,11.07
2023-08-17T01:13:02.928Z,10.80
2023-08-17T01:14:32.099Z,10.07
2023-08-17T01:16:00.589Z,9.77
2023-08-17T01:17:28.031Z,7.85
2023-08-17T01:18:53.178Z,6.10
2023-08-17T01:20:18.153Z,5.28
2023-08-17T01:21:45.247Z,4.32
2023-08-17T01:23:08.855Z,3.25
2023-08-17T01:24:31.905Z,2.30
2023-08-17T01:25:54.871Z,1.60
2023-08-17T01:27:18.507Z,1.10
2023-08-17T01:28:40.521Z,1.05
2023-08-17T01:30:03.632Z,0.75
2023-08-17T01:31:32.928Z,0.90
2023-08-17T01:33:00.639Z,0.68
2023-08-17T01:34:26.546Z,0.80
2023-08-17T01:35:57.284Z,0.80
2023-08-17T01:37:23.145Z,0.82
2023-08-17T01:38:48.397Z,0.63
2023-08-17T01:40:14.444Z,0.60
2023-08-17T01:41:38.835Z,1.00
2023-08-17T01:43:01.431Z,0.90
2023-08-17T01:44:26.347Z,0.77
2023-08-17T01:45:48.944Z,1.35
2023-08-17T01:47:12.851Z,1.08
2023-08-17T01:48:34.839Z,1.30
2023-08-17T01:50:00.930Z,1.80
2023-08-17T01:51:22.866Z,1.48
2023-08-17T01:52:45.807Z,1.73
2023-08-17T01:54:09.753Z,1.83
2023-08-17T01:55:32.653Z,1.92
2023-08-17T01:56:54.841Z,1.75
2023-08-17T01:58:17.817Z,1.80
2023-08-17T01:59:39.767Z,2.20
2023-08-17T02:01:03.042Z,2.10
2023-08-17T02:02:25.045Z,2.13
2023-08-17T02:03:47.960Z,2.50
2023-08-17T02:05:10.393Z,3.03
2023-08-17T02:06:33.351Z,3.20
2023-08-17T02:07:55.276Z,2.38
2023-08-17T02:09:19.467Z,2.30
2023-08-17T02:10:41.438Z,1.98
2023-08-17T02:12:04.658Z,1.92
2023-08-17T02:13:28.461Z,2.05
2023-08-17T02:14:50.447Z,1.77
2023-08-17T02:16:13.695Z,1.77
2023-08-17T02:17:35.674Z,1.88
2023-08-17T02:18:58.599Z,2.22
2023-08-17T02:20:20.642Z,2.13
2023-08-17T02:21:43.662Z,2.72
2023-08-17T02:23:05.769Z,1.75
2023-08-17T02:24:30.025Z,2.75
2023-08-17T02:25:52.024Z,1.90
2023-08-17T02:27:14.965Z,1.98
2023-08-17T02:28:36.953Z,2.20
2023-08-17T02:29:59.931Z,2.20
2023-08-17T02:31:22.023Z,2.30
2023-08-17T02:32:45.183Z,1.48
2023-08-17T02:34:07.215Z,1.30
2023-08-17T02:35:30.227Z,1.80
2023-08-17T02:36:52.252Z,1.92
2023-08-17T02:38:15.176Z,1.73
2023-08-17T02:39:38.769Z,1.63
2023-08-17T02:41:01.774Z,2.03
2023-08-17T02:42:23.820Z,2.08
2023-08-17T02:43:46.746Z,1.75
2023-08-17T02:45:10.128Z,1.75
2023-08-17T02:46:33.169Z,2.10
2023-08-17T02:47:55.212Z,2.05
2023-08-17T02:49:18.230Z,2.10
2023-08-17T02:50:40.667Z,2.10
2023-08-17T02:52:03.622Z,2.35
2023-08-17T02:53:25.593Z,2.40
2023-08-17T02:54:49.844Z,2.50
2023-08-17T02:56:13.018Z,2.17
2023-08-17T02:57:35.984Z,2.25
2023-08-17T02:58:58.288Z,2.90
2023-08-17T03:00:21.221Z,2.33
2023-08-17T03:01:45.698Z,2.10
2023-08-17T03:03:08.748Z,2.50
2023-08-17T03:04:31.112Z,2.45
2023-08-17T03:05:54.342Z,1.88
2023-08-17T03:07:16.378Z,1.67
2023-08-17T03:08:39.356Z,1.80
2023-08-17T03:10:02.625Z,1.73
2023-08-17T03:11:25.506Z,1.83
2023-08-17T03:12:47.445Z,1.90
2023-08-17T03:14:10.328Z,1.60
2023-08-17T03:15:32.309Z,1.50
2023-08-17T03:16:55.262Z,1.63
2023-08-17T03:18:17.227Z,1.80
2023-08-17T03:19:40.133Z,1.48
2023-08-17T03:21:02.219Z,1.52
2023-08-17T03:22:25.455Z,1.52
2023-08-17T03:23:47.444Z,1.60
2023-08-17T03:25:12.018Z,1.38
2023-08-17T03:26:34.061Z,1.77
2023-08-17T03:27:56.927Z,1.80
2023-08-17T03:29:18.865Z,1.40
2023-08-17T03:30:41.800Z,1.55
2023-08-17T03:32:03.969Z,1.50
2023-08-17T03:33:26.926Z,1.52
2023-08-17T03:34:51.994Z,2.40
2023-08-17T03:36:16.409Z,2.17
2023-08-17T03:37:38.549Z,1.80
2023-08-17T03:39:01.457Z,2.20
2023-08-17T03:40:24.836Z,1.90
2023-08-17T03:41:47.786Z,2.42
2023-08-17T03:43:09.753Z,2.67
2023-08-17T03:44:32.693Z,2.30
2023-08-17T03:45:55.351Z,2.17
2023-08-17T03:47:18.286Z,2.83
2023-08-17T03:48:40.409Z,2.28
2023-08-17T03:50:04.569Z,2.60
2023-08-17T03:51:26.555Z,2.20
2023-08-17T03:52:49.559Z,2.10
2023-08-17T03:54:13.044Z,2.08
2023-08-17T03:55:37.749Z,2.35
2023-08-17T03:57:01.724Z,2.60
2023-08-17T03:58:32.079Z,2.72
2023-08-17T03:59:56.425Z,2.30
2023-08-17T04:01:22.440Z,2.47
2023-08-17T04:02:46.871Z,2.20
2023-08-17T04:04:14.295Z,2.55
2023-08-17T04:05:39.449Z,2.22
2023-08-17T04:07:02.484Z,2.28
2023-08-17T04:08:24.533Z,2.10
2023-08-17T04:09:48.168Z,2.42
2023-08-17T04:11:11.464Z,2.35
2023-08-17T04:12:35.232Z,2.30
2023-08-17T04:13:57.602Z,2.03
2023-08-17T04:15:20.533Z,2.03
2023-08-17T04:16:42.926Z,3.53
2023-08-17T04:18:06.386Z,3.88
2023-08-17T04:19:28.543Z,4.50
2023-08-17T04:20:55.027Z,4.82
2023-08-17T04:22:17.605Z,5.20
2023-08-17T04:23:40.522Z,6.30
2023-08-17T04:25:02.808Z,6.68
2023-08-17T04:26:27.164Z,7.45
2023-08-17T04:27:49.204Z,7.57
2023-08-17T04:29:15.398Z,7.35
2023-08-17T04:30:40.669Z,6.38
2023-08-17T04:32:03.845Z,6.28
2023-08-17T04:33:25.793Z,6.95
2023-08-17T04:34:49.341Z,6.78
2023-08-17T04:36:11.354Z,6.53
2023-08-17T04:37:34.637Z,4.72
2023-08-17T04:38:56.636Z,5.28
2023-08-17T04:40:23.287Z,5.22
2023-08-17T04:41:46.571Z,5.25
2023-08-17T04:43:12.385Z,4.40
2023-08-17T04:44:34.391Z,4.00
2023-08-17T04:46:03.181Z,4.20
2023-08-17T04:47:25.800Z,4.40
2023-08-17T04:48:51.304Z,3.70
2023-08-17T04:50:17.267Z,3.55
2023-08-17T04:51:42.258Z,3.70
2023-08-17T04:53:06.744Z,2.40
2023-08-17T04:54:32.556Z,2.95
2023-08-17T04:55:54.792Z,2.70
2023-08-17T04:57:24.246Z,2.80
2023-08-17T04:58:46.746Z,2.13
2023-08-17T05:00:29.418Z,2.33
2023-08-17T05:01:53.563Z,2.33
2023-08-17T05:04:56.146Z,2.03
2023-08-17T05:06:23.558Z,2.28
2023-08-17T05:07:52.788Z,2.17
2023-08-17T05:09:27.841Z,2.17
2023-08-17T05:10:50.290Z,2.30
2023-08-17T05:12:16.310Z,1.70
2023-08-17T05:13:39.762Z,1.88
2023-08-17T05:15:02.884Z,1.70
2023-08-17T05:16:24.893Z,1.60
2023-08-17T05:17:58.274Z,1.75
2023-08-17T05:19:20.381Z,1.52
2023-08-17T05:20:43.302Z,1.77
2023-08-17T05:22:05.694Z,1.75
2023-08-17T05:23:28.734Z,1.70
2023-08-17T05:24:53.429Z,1.58
2023-08-17T05:26:18.605Z,1.70
2023-08-17T05:27:41.561Z,1.58
2023-08-17T05:29:05.982Z,1.58
2023-08-17T05:30:28.453Z,1.30
2023-08-17T05:31:51.439Z,1.75
2023-08-17T05:33:13.513Z,1.95
2023-08-17T05:34:36.871Z,1.60
2023-08-17T05:35:59.121Z,1.70
2023-08-17T05:37:22.325Z,2.00
2023-08-17T05:38:44.622Z,1.30
2023-08-17T05:40:09.988Z,1.40
2023-08-17T05:41:32.164Z,1.50
2023-08-17T05:42:55.151Z,2.08
2023-08-17T05:44:18.662Z,1.50
2023-08-17T05:45:41.666Z,1.65
2023-08-17T05:47:04.083Z,1.33
2023-08-17T05:48:27.567Z,1.60
2023-08-17T05:49:49.629Z,1.45
2023-08-17T05:51:12.586Z,1.83
2023-08-17T05:52:34.690Z,1.42
2023-08-17T05:53:57.872Z,1.65
2023-08-17T05:55:19.859Z,1.67
2023-08-17T05:56:45.947Z,2.03
2023-08-17T05:58:07.977Z,1.45
2023-08-17T05:59:32.331Z,1.63
2023-08-17T06:00:54.279Z,1.38
2023-08-17T06:02:17.368Z,1.73
2023-08-17T06:03:39.565Z,1.63
2023-08-17T06:05:02.613Z,1.92
2023-08-17T06:06:24.629Z,1.60
2023-08-17T06:07:47.617Z,1.60
2023-08-17T06:09:09.744Z,1.70
2023-08-17T06:10:32.676Z,1.25
2023-08-17T06:11:54.588Z,1.30
2023-08-17T06:13:17.542Z,1.20
2023-08-17T06:14:41.330Z,1.90
2023-08-17T06:16:04.240Z,1.45
2023-08-17T06:17:26.490Z,1.80
2023-08-17T06:18:49.625Z,1.50
2023-08-17T06:20:13.334Z,1.63
2023-08-17T06:21:36.333Z,1.77
2023-08-17T06:22:59.438Z,2.40
2023-08-17T06:24:24.062Z,1.58
2023-08-17T06:25:46.048Z,1.73
2023-08-17T06:27:09.002Z,1.83
2023-08-17T06:28:30.985Z,2.40
2023-08-17T06:29:55.306Z,2.95
2023-08-17T06:31:17.583Z,2.88
2023-08-17T06:32:40.694Z,4.03
2023-08-17T06:34:02.667Z,4.70
2023-08-17T06:35:25.650Z,4.50
2023-08-17T06:36:58.691Z,5.15
2023-08-17T06:38:21.614Z,5.43
2023-08-17T06:39:43.551Z,5.53
2023-08-17T06:41:06.451Z,5.10
2023-08-17T06:42:28.412Z,5.13
2023-08-17T06:43:51.335Z,4.93
2023-08-17T06:45:19.367Z,4.65
2023-08-17T06:46:42.287Z,4.82
2023-08-17T06:48:04.933Z,4.55
2023-08-17T06:49:28.869Z,4.10
2023-08-17T06:50:50.777Z,3.95
2023-08-17T06:52:13.717Z,3.70
2023-08-17T06:53:35.684Z,3.42
2023-08-17T06:54:58.628Z,3.75
2023-08-17T06:56:21.815Z,4.40
2023-08-17T06:57:43.803Z,3.78
2023-08-17T06:59:06.700Z,3.80
2023-08-17T07:00:31.079Z,3.60
2023-08-17T07:01:53.473Z,3.60
2023-08-17T07:03:17.332Z,3.38
2023-08-17T07:04:39.332Z,3.28
2023-08-17T07:06:02.280Z,4.45
2023-08-17T07:07:24.424Z,3.53
2023-08-17T07:08:47.802Z,3.58
2023-08-17T07:10:11.465Z,3.28
2023-08-17T07:11:34.744Z,2.80
2023-08-17T07:12:56.702Z,3.13
2023-08-17T07:14:21.793Z,2.22
2023-08-17T07:15:46.316Z,1.90
2023-08-17T07:17:09.246Z,1.88
2023-08-17T07:18:32.295Z,1.95
2023-08-17T07:20:14.654Z,2.00
2023-08-17T07:21:37.397Z,1.70
2023-08-17T07:22:59.434Z,1.90
2023-08-17T07:24:22.330Z,1.52
2023-08-17T07:25:45.311Z,1.90
2023-08-17T07:27:08.344Z,1.98
2023-08-17T07:28:30.492Z,2.20
2023-08-17T07:29:54.415Z,2.10
2023-08-17T07:31:17.765Z,2.40
2023-08-17T07:32:40.999Z,2.30
2023-08-17T07:34:03.174Z,2.00
2023-08-17T07:35:26.213Z,2.03
2023-08-17T07:36:48.163Z,2.08
2023-08-17T07:38:11.127Z,1.70
2023-08-17T07:39:33.549Z,2.10
2023-08-17T07:40:56.975Z,2.05
2023-08-17T07:42:18.968Z,2.58
2023-08-17T07:43:41.908Z,2.40
2023-08-17T07:45:07.325Z,1.98
2023-08-17T07:46:31.732Z,2.53
2023-08-17T07:47:54.005Z,1.98
2023-08-17T07:49:30.285Z,2.20
2023-08-17T07:50:54.775Z,2.47
2023-08-17T07:52:18.306Z,2.50
2023-08-17T07:53:40.461Z,2.90
2023-08-17T07:55:04.545Z,3.00
2023-08-17T07:56:26.613Z,2.90
2023-08-17T07:57:49.791Z,3.35
2023-08-17T07:59:12.147Z,3.20
2023-08-17T08:00:35.038Z,3.60
2023-08-17T08:01:58.454Z,2.97
2023-08-17T08:03:21.481Z,3.10
2023-08-17T08:04:43.476Z,2.78
2023-08-17T08:06:06.505Z,3.03
2023-08-17T08:07:28.635Z,3.28
2023-08-17T08:08:52.026Z,3.22
2023-08-17T08:10:14.467Z,3.25
2023-08-17T08:11:37.719Z,3.00
2023-08-17T08:12:59.893Z,2.80
2023-08-17T08:14:23.210Z,3.25
2023-08-17T08:15:45.273Z,3.15
2023-08-17T08:17:09.730Z,2.90
2023-08-17T08:18:31.994Z,2.92
2023-08-17T08:19:55.584Z,2.70
2023-08-17T08:21:17.693Z,2.80
2023-08-17T08:22:40.637Z,2.80
2023-08-17T08:24:02.934Z,2.90
2023-08-17T08:25:26.313Z,2.78
2023-08-17T08:26:48.273Z,3.45
2023-08-17T08:28:11.516Z,3.08
2023-08-17T08:29:34.228Z,3.10
2023-08-17T08:30:57.148Z,2.90
2023-08-17T08:32:24.315Z,2.90
2023-08-17T08:33:47.264Z,3.35
2023-08-17T08:35:09.455Z,2.80
2023-08-17T08:36:32.412Z,2.60
2023-08-17T08:37:56.623Z,2.85
2023-08-17T08:39:19.629Z,3.80
2023-08-17T08:40:41.998Z,4.18
2023-08-17T08:42:06.024Z,4.22
2023-08-17T08:43:28.245Z,4.38
2023-08-17T08:44:52.281Z,4.55
2023-08-17T08:46:18.061Z,4.30
2023-08-17T08:47:46.825Z,3.83
2023-08-17T08:49:11.681Z,4.63
2023-08-17T08:50:38.250Z,3.75
2023-08-17T08:52:02.061Z,3.97
2023-08-17T08:53:36.269Z,3.75
2023-08-17T08:54:59.759Z,4.35
2023-08-17T08:56:25.768Z,4.15
2023-08-17T08:57:51.798Z,4.20
2023-08-17T08:59:15.699Z,5.00
2023-08-17T09:00:39.679Z,4.45
2023-08-17T09:02:02.990Z,5.60
2023-08-17T09:03:27.933Z,4.18
2023-08-17T09:04:51.448Z,4.55
2023-08-17T09:06:15.689Z,4.30
2023-08-17T09:07:38.766Z,4.05
2023-08-17T09:09:03.961Z,4.75
2023-08-17T09:10:26.038Z,4.63
2023-08-17T09:13:27.633Z,4.82
2023-08-17T09:14:49.877Z,5.00
2023-08-17T09:16:13.068Z,4.95
2023-08-17T09:17:35.461Z,4.85
2023-08-17T09:19:00.267Z,4.40
2023-08-17T09:20:38.111Z,5.10
2023-08-17T09:22:01.230Z,4.70
2023-08-17T09:23:23.455Z,4.60
2023-08-17T09:24:46.583Z,5.15
2023-08-17T09:26:12.878Z,4.45
2023-08-17T09:27:35.277Z,5.35
2023-08-17T09:29:00.175Z,4.78
2023-08-17T09:30:22.212Z,5.50
2023-08-17T09:31:49.474Z,5.28
2023-08-17T09:33:11.489Z,5.43
2023-08-17T09:34:36.226Z,5.10
2023-08-17T09:36:00.547Z,5.57
2023-08-17T09:37:27.802Z,5.80
2023-08-17T09:38:52.951Z,5.93
2023-08-17T09:40:22.234Z,5.55
2023-08-17T09:41:45.412Z,5.97
2023-08-17T09:43:08.927Z,5.70
2023-08-17T09:44:35.169Z,5.50
2023-08-17T09:45:58.391Z,6.22
2023-08-17T09:47:22.452Z,6.15
2023-08-17T09:48:46.452Z,5.70
2023-08-17T09:50:11.405Z,5.50
2023-08-17T09:51:34.529Z,5.40
2023-08-17T09:53:00.703Z,5.72
2023-08-17T09:54:27.064Z,5.85
2023-08-17T09:55:49.340Z,5.63
2023-08-17T09:57:23.378Z,5.30
2023-08-17T09:59:04.271Z,5.95
2023-08-17T10:00:28.262Z,5.65
2023-08-17T10:03:20.379Z,4.90
2023-08-17T10:04:47.282Z,5.30
2023-08-17T10:06:13.379Z,5.18
2023-08-17T10:07:49.794Z,5.43
2023-08-17T10:09:18.854Z,5.50
2023-08-17T10:10:45.164Z,5.40
2023-08-17T10:12:13.971Z,6.00
2023-08-17T10:13:41.939Z,5.53
2023-08-17T10:15:09.329Z,5.85
2023-08-17T10:16:44.057Z,5.55
2023-08-17T10:18:15.679Z,5.30
2023-08-17T10:19:46.014Z,5.15
2023-08-17T10:21:14.940Z,5.22
2023-08-17T10:22:46.898Z,5.40
2023-08-17T10:24:51.562Z,5.35
2023-08-17T10:26:54.940Z,6.18
2023-08-17T10:28:19.656Z,5.65
2023-08-17T10:29:43.361Z,5.28
2023-08-17T10:31:11.555Z,5.80
2023-08-17T10:32:34.058Z,5.57
2023-08-17T10:33:58.313Z,5.22
2023-08-17T10:35:20.849Z,5.60
2023-08-17T10:36:46.628Z,5.50
2023-08-17T10:38:11.323Z,5.10
2023-08-17T10:39:35.861Z,5.43
2023-08-17T10:41:17.721Z,5.00
2023-08-17T10:42:41.326Z,5.03
2023-08-17T10:44:03.573Z,4.95
2023-08-17T10:45:32.107Z,5.38
2023-08-17T10:46:54.598Z,6.07
2023-08-17T10:48:29.108Z,5.82
2023-08-17T10:49:52.372Z,5.93
2023-08-17T10:51:15.532Z,5.45
2023-08-17T10:54:11.790Z,5.25
2023-08-17T10:55:37.625Z,4.97
2023-08-17T10:57:00.997Z,5.07
2023-08-17T10:58:22.931Z,5.68
2023-08-17T10:59:46.043Z,6.00
2023-08-17T11:01:08.391Z,5.05
2023-08-17T11:02:40.041Z,5.53
2023-08-17T11:04:17.008Z,5.97
2023-08-17T11:05:44.006Z,6.05
2023-08-17T11:07:17.209Z,5.47
2023-08-17T11:08:53.070Z,5.82
2023-08-17T11:10:34.071Z,5.72
2023-08-17T11:14:13.115Z,5.18
2023-08-17T11:16:13.749Z,5.30
2023-08-17T11:17:54.670Z,5.40
2023-08-17T11:19:33.208Z,5.32
2023-08-17T11:21:10.061Z,4.95
2023-08-17T11:23:00.034Z,5.90
2023-08-17T11:24:30.712Z,5.75
2023-08-17T11:27:28.681Z,5.53
2023-08-17T11:29:01.714Z,6.28
2023-08-17T11:32:37.765Z,7.05
2023-08-17T11:34:06.986Z,6.10
2023-08-17T11:35:29.102Z,6.43
2023-08-17T11:36:52.722Z,7.10
2023-08-17T11:39:59.879Z,6.78
2023-08-17T11:41:33.526Z,6.32
2023-08-17T11:43:12.711Z,7.95
2023-08-17T11:44:43.380Z,8.00
2023-08-17T11:46:11.948Z,7.45
2023-08-17T11:48:01.208Z,8.00
2023-08-17T11:49:44.224Z,7.20
2023-08-17T11:51:19.789Z,7.20
2023-08-17T11:53:00.700Z,6.90
2023-08-17T11:54:34.056Z,6.97
2023-08-17T11:56:15.117Z,10.40
2023-08-17T11:57:53.101Z,7.88
2023-08-17T11:59:31.939Z,9.45
2023-08-17T12:01:20.072Z,8.40
2023-08-17T12:03:01.763Z,7.47
2023-08-17T12:04:40.617Z,8.15
2023-08-17T12:06:18.648Z,7.00
2023-08-17T12:08:06.233Z,7.82
2023-08-17T12:11:51.284Z,7.80
2023-08-17T12:13:53.531Z,7.28
2023-08-17T12:15:17.295Z,6.80
2023-08-17T12:18:46.983Z,7.22
2023-08-17T12:21:59.503Z,7.22
2023-08-17T12:23:28.171Z,6.85
2023-08-17T12:25:18.548Z,7.35
2023-08-17T12:27:17.288Z,6.45
2023-08-17T12:28:55.756Z,6.25
2023-08-17T12:30:47.349Z,6.60
2023-08-17T12:38:43.810Z,5.75
2023-08-17T12:40:49.221Z,6.60
2023-08-17T12:42:20.819Z,6.47
2023-08-17T12:43:48.720Z,5.93
2023-08-17T12:47:10.242Z,6.07
2023-08-17T12:48:49.850Z,6.00
2023-08-17T12:50:13.892Z,5.97
2023-08-17T12:52:00.631Z,5.63
2023-08-17T12:53:41.939Z,5.72
2023-08-17T12:55:15.996Z,6.22
2023-08-17T12:56:58.917Z,6.53
2023-08-17T13:02:55.257Z,5.63
2023-08-17T13:06:22.133Z,6.15
2023-08-17T13:08:00.156Z,6.30
2023-08-17T13:13:17.544Z,6.30
2023-08-17T13:15:04.768Z,5.90
2023-08-17T13:18:16.985Z,6.68
2023-08-17T13:19:50.982Z,6.70
2023-08-17T13:21:26.000Z,6.70
2023-08-17T13:23:11.690Z,6.88
2023-08-17T13:24:43.882Z,6.78
2023-08-17T13:26:16.546Z,6.80
2023-08-17T13:27:46.786Z,7.35
2023-08-17T13:29:18.361Z,6.70
2023-08-17T13:33:07.949Z,7.60
2023-08-17T13:36:45.253Z,6.45
2023-08-17T13:38:27.420Z,6.22
2023-08-17T13:40:12.412Z,6.38
2023-08-17T13:41:46.242Z,7.35
2023-08-17T13:43:24.038Z,6.70
2023-08-17T13:45:33.547Z,6.90
2023-08-17T13:48:49.587Z,6.65
2023-08-17T13:50:28.539Z,7.07
2023-08-17T13:52:01.236Z,7.30
2023-08-17T13:53:33.994Z,7.13
2023-08-17T13:55:10.378Z,7.30
2023-08-17T13:56:36.258Z,7.50
2023-08-17T13:57:59.389Z,8.02
2023-08-17T13:59:26.519Z,8.13
2023-08-17T14:00:50.283Z,7.68
2023-08-17T14:02:30.917Z,7.53
2023-08-17T14:03:54.224Z,8.20
2023-08-17T14:05:20.040Z,7.20
2023-08-17T14:06:46.206Z,8.38
2023-08-17T14:08:12.368Z,7.78
2023-08-17T14:09:43.288Z,8.45
2023-08-17T14:11:13.151Z,7.97
2023-08-17T14:12:40.178Z,8.88
2023-08-17T14:14:10.057Z,8.27
2023-08-17T14:17:09.186Z,7.53
2023-08-17T14:18:42.445Z,7.97
2023-08-17T14:20:14.025Z,8.90
2023-08-17T14:21:38.808Z,8.38
2023-08-17T14:23:10.951Z,8.07
2023-08-17T14:24:38.792Z,7.43
2023-08-17T14:26:30.714Z,8.60
2023-08-17T14:28:04.240Z,8.32
2023-08-17T14:29:28.244Z,8.93
2023-08-17T14:30:57.982Z,8.00
2023-08-17T14:32:26.073Z,8.35
2023-08-17T14:34:09.396Z,8.45
2023-08-17T14:35:34.717Z,9.32
2023-08-17T14:37:03.449Z,10.15
2023-08-17T14:38:31.574Z,9.02
2023-08-17T14:40:19.804Z,8.57
2023-08-17T14:41:57.145Z,9.23
2023-08-17T14:43:37.587Z,8.70
2023-08-17T14:45:10.780Z,9.13
2023-08-17T14:46:47.900Z,9.20
2023-08-17T14:48:26.841Z,8.82
2023-08-17T14:50:00.322Z,8.55
2023-08-17T14:51:31.471Z,8.10
2023-08-17T14:53:03.799Z,8.00
2023-08-17T14:54:30.841Z,8.88
2023-08-17T14:55:56.262Z,8.32
2023-08-17T14:57:26.590Z,8.18
2023-08-17T14:58:51.500Z,8.60
2023-08-17T15:00:20.109Z,8.20
2023-08-17T15:01:42.343Z,8.68
2023-08-17T15:03:06.304Z,8.70
2023-08-17T15:04:28.578Z,8.20
2023-08-17T15:05:53.921Z,8.13
2023-08-17T15:07:17.595Z,8.40
2023-08-17T15:08:51.963Z,8.70
2023-08-17T15:10:16.702Z,8.32
2023-08-17T15:11:45.399Z,8.48
2023-08-17T15:13:11.276Z,9.07
2023-08-17T15:14:35.075Z,9.20
2023-08-17T15:15:57.792Z,8.70
2023-08-17T15:17:20.858Z,9.13
2023-08-17T15:18:43.039Z,8.43
2023-08-17T15:20:07.361Z,8.52
2023-08-17T15:21:30.741Z,8.63
2023-08-17T15:22:54.093Z,9.32
2023-08-17T15:24:16.146Z,9.93
2023-08-17T15:25:44.889Z,9.27
2023-08-17T15:27:09.206Z,9.30
2023-08-17T15:28:33.214Z,9.43
2023-08-17T15:29:57.721Z,10.32
2023-08-17T15:31:21.454Z,8.95
2023-08-17T15:32:53.377Z,9.73
2023-08-17T15:34:21.370Z,8.93
2023-08-17T15:35:43.454Z,8.73
2023-08-17T15:37:08.546Z,9.00
2023-08-17T15:38:30.921Z,9.27
2023-08-17T15:39:54.414Z,9.57
2023-08-17T15:41:16.523Z,9.05
2023-08-17T15:42:39.621Z,9.32
2023-08-17T15:44:01.873Z,8.27
2023-08-17T15:45:25.231Z,9.57
2023-08-17T15:46:47.515Z,8.93
2023-08-17T15:48:10.800Z,9.15
2023-08-17T15:49:32.976Z,9.88
2023-08-17T15:50:57.174Z,8.93
2023-08-17T15:52:22.328Z,8.88
2023-08-17T15:53:47.603Z,9.10
2023-08-17T15:55:09.984Z,9.23
2023-08-17T15:56:33.372Z,9.48
2023-08-17T15:57:55.720Z,9.07
2023-08-17T15:59:21.815Z,9.05
2023-08-17T16:00:47.709Z,9.15
2023-08-17T16:02:11.106Z,9.15
2023-08-17T16:03:33.491Z,9.13
2023-08-17T16:04:56.596Z,8.80
2023-08-17T16:06:19.543Z,8.60
2023-08-17T16:07:48.641Z,9.35
2023-08-17T16:09:18.381Z,9.07
2023-08-17T16:10:50.639Z,8.88
2023-08-17T16:12:16.228Z,8.85
2023-08-17T16:13:45.766Z,9.13
2023-08-17T16:15:12.825Z,9.18
2023-08-17T16:16:34.912Z,8.98
2023-08-17T16:19:26.619Z,9.57
2023-08-17T16:20:50.101Z,9.57
2023-08-17T16:22:17.164Z,9.20
2023-08-17T16:23:43.772Z,9.07
2023-08-17T16:25:07.339Z,9.52
2023-08-17T16:26:34.448Z,9.27
2023-08-17T16:27:57.111Z,9.30
2023-08-17T16:29:20.262Z,9.13
2023-08-17T16:30:42.369Z,9.38
2023-08-17T16:32:09.457Z,8.95
2023-08-17T16:33:31.852Z,9.23
2023-08-17T16:34:54.885Z,9.20
2023-08-17T16:36:18.549Z,9.25
2023-08-17T16:37:41.192Z,9.10
2023-08-17T16:39:17.215Z,9.60
2023-08-17T16:40:39.373Z,8.93
2023-08-17T16:42:02.601Z,9.73
2023-08-17T16:43:24.683Z,9.57
2023-08-17T16:44:47.897Z,9.52
2023-08-17T16:47:00.744Z,9.23
2023-08-17T16:49:46.376Z,9.52
2023-08-17T16:51:09.427Z,9.95
2023-08-17T16:52:31.424Z,11.88
2023-08-17T16:53:54.967Z,14.38
2023-08-17T16:55:18.719Z,15.23
2023-08-17T16:56:53.873Z,14.18
2023-08-17T16:58:29.479Z,12.15
2023-08-17T16:59:54.670Z,12.85
2023-08-17T17:01:16.770Z,11.77
2023-08-17T17:02:39.805Z,10.55
2023-08-17T17:04:02.149Z,12.02
2023-08-17T17:05:25.401Z,13.57
2023-08-17T17:06:47.476Z,11.85
2023-08-17T17:08:10.512Z,13.60
2023-08-17T17:09:32.578Z,14.32
2023-08-17T17:10:56.831Z,13.15
2023-08-17T17:12:18.835Z,14.55
2023-08-17T17:13:41.941Z,11.32
2023-08-17T17:15:05.384Z,11.35
2023-08-17T17:16:28.332Z,11.30
2023-08-17T17:17:50.472Z,10.93
2023-08-17T17:19:13.445Z,10.90
2023-08-17T17:20:35.541Z,11.38
2023-08-17T17:21:58.543Z,11.32
2023-08-17T17:23:20.505Z,11.48
2023-08-17T17:24:46.494Z,11.07
2023-08-17T17:26:10.036Z,10.65
2023-08-17T17:27:33.396Z,10.07
2023-08-17T17:28:55.389Z,8.98
2023-08-17T17:30:18.369Z,8.60
2023-08-17T17:31:40.288Z,7.43
2023-08-17T17:33:03.314Z,6.85
2023-08-17T17:34:25.434Z,8.27
2023-08-17T17:35:48.355Z,8.00
2023-08-17T17:37:10.367Z,7.78
2023-08-17T17:38:33.266Z,7.47
2023-08-17T17:39:55.427Z,8.32
2023-08-17T17:41:19.792Z,8.30
2023-08-17T17:42:41.799Z,7.93
2023-08-17T17:44:05.221Z,7.47
2023-08-17T17:45:27.156Z,8.38
2023-08-17T17:46:50.168Z,8.35
2023-08-17T17:48:13.259Z,8.88
2023-08-17T17:49:36.186Z,9.13
2023-08-17T17:50:58.256Z,9.02
2023-08-17T17:52:21.174Z,9.25
2023-08-17T17:53:43.148Z,8.73
2023-08-17T17:55:06.951Z,8.88
2023-08-17T17:56:40.102Z,9.05
2023-08-17T17:58:03.185Z,8.93
2023-08-17T17:59:25.183Z,9.25
2023-08-17T18:00:48.701Z,9.35
2023-08-17T18:02:10.708Z,9.45
2023-08-17T18:03:33.658Z,9.10
2023-08-17T18:04:55.832Z,9.90
2023-08-17T18:06:20.892Z,9.98
2023-08-17T18:07:43.055Z,10.13
2023-08-17T18:09:06.948Z,10.27
2023-08-17T18:10:29.216Z,10.40
2023-08-17T18:11:53.531Z,9.98
2023-08-17T18:13:15.525Z,9.80
2023-08-17T18:14:40.010Z,9.93
2023-08-17T18:16:01.988Z,10.00
2023-08-17T18:17:25.036Z,10.15
2023-08-17T18:18:49.826Z,10.90
2023-08-17T18:20:15.375Z,11.25
2023-08-17T18:21:38.314Z,11.05
2023-08-17T18:23:00.263Z,11.00
2023-08-17T18:24:25.986Z,10.25
2023-08-17T18:25:48.713Z,11.45
2023-08-17T18:27:13.047Z,10.50
2023-08-17T18:28:35.056Z,11.05
2023-08-17T18:29:57.979Z,11.10
2023-08-17T18:31:19.963Z,10.95
2023-08-17T18:32:43.024Z,10.75
2023-08-17T18:34:05.072Z,10.52
2023-08-17T18:35:28.139Z,11.38
2023-08-17T18:36:50.320Z,11.82
2023-08-17T18:38:13.415Z,11.57
2023-08-17T18:39:35.318Z,12.57
2023-08-17T18:41:09.026Z,12.43
2023-08-17T18:42:32.469Z,11.70
2023-08-17T18:43:55.399Z,12.63
2023-08-17T18:45:18.922Z,11.50
2023-08-17T18:46:42.071Z,11.93
2023-08-17T18:48:05.230Z,12.35
2023-08-17T18:49:28.171Z,13.00
2023-08-17T18:50:50.091Z,13.48
2023-08-17T18:52:13.005Z,12.10
2023-08-17T18:53:34.986Z,12.57
2023-08-17T18:55:01.824Z,13.05
2023-08-17T18:56:23.823Z,12.30
2023-08-17T18:57:50.498Z,12.38
2023-08-17T18:59:12.468Z,12.88
2023-08-17T19:00:35.485Z,12.63
2023-08-17T19:01:57.425Z,12.20
2023-08-17T19:03:20.877Z,12.70
2023-08-17T19:04:43.000Z,12.32
2023-08-17T19:06:06.069Z,13.00
2023-08-17T19:07:29.222Z,13.27
2023-08-17T19:08:52.476Z,13.00
2023-08-17T19:10:14.509Z,14.30
2023-08-17T19:11:37.502Z,13.13
2023-08-17T19:13:00.850Z,12.60
2023-08-17T19:14:23.898Z,12.40
2023-08-17T19:15:45.998Z,12.68
2023-08-17T19:17:09.084Z,13.25
2023-08-17T19:18:31.410Z,13.20
2023-08-17T19:19:54.515Z,12.82
2023-08-17T19:21:16.480Z,13.18
2023-08-17T19:22:39.629Z,13.73
2023-08-17T19:24:01.639Z,12.43
2023-08-17T19:25:24.598Z,13.15
2023-08-17T19:26:46.582Z,13.07
2023-08-17T19:28:10.954Z,12.15
2023-08-17T19:29:33.742Z,13.48
2023-08-17T19:30:56.660Z,12.70
2023-08-17T19:32:18.605Z,12.77
2023-08-17T19:33:41.600Z,13.23
2023-08-17T19:35:04.585Z,12.18
2023-08-17T19:36:27.968Z,11.75
2023-08-17T19:37:50.747Z,11.15
2023-08-17T19:39:13.712Z,9.30
2023-08-17T19:40:35.646Z,9.85
2023-08-17T19:41:58.636Z,8.77
2023-08-17T19:43:21.936Z,9.07
2023-08-17T19:44:45.771Z,9.05
2023-08-17T19:46:07.828Z,8.45